sensor_id;sensor_type;location;lat;lon;timestamp;pressure;altitude;pressure_sealevel;temperature;humidity
15694;BME280;7947;48.834;9.132;2022-09-12T00:01:27;98338.97;;;14.03;88.54
15694;BME280;7947;48.834;9.132;2022-09-12T00:04:32;98332.25;;;14.00;88.99
15694;BME280;7947;48.834;9.132;2022-09-12T00:07:38;98330.34;;;14.01;89.15
15694;BME280;7947;48.834;9.132;2022-09-12T00:10:44;98336.81;;;14.00;88.72
15694;BME280;7947;48.834;9.132;2022-09-12T00:13:49;98335.53;;;13.97;88.22
15694;BME280;7947;48.834;9.132;2022-09-12T00:16:57;98335.81;;;13.96;88.25
15694;BME280;7947;48.834;9.132;2022-09-12T00:20:03;98335.97;;;13.86;88.01
15694;BME280;7947;48.834;9.132;2022-09-12T00:23:10;98335.16;;;13.85;87.91
15694;BME280;7947;48.834;9.132;2022-09-12T00:26:16;98328.97;;;13.85;88.42
15694;BME280;7947;48.834;9.132;2022-09-12T00:29:23;98334.13;;;13.81;88.73
15694;BME280;7947;48.834;9.132;2022-09-12T00:32:28;98336.81;;;13.81;88.84
15694;BME280;7947;48.834;9.132;2022-09-12T00:35:41;98332.50;;;13.80;88.86
15694;BME280;7947;48.834;9.132;2022-09-12T00:38:48;98322.03;;;13.79;88.91
15694;BME280;7947;48.834;9.132;2022-09-12T00:41:54;98318.25;;;13.80;88.68
15694;BME280;7947;48.834;9.132;2022-09-12T00:44:59;98318.97;;;13.85;89.07
15694;BME280;7947;48.834;9.132;2022-09-12T00:48:04;98325.69;;;13.88;89.56
15694;BME280;7947;48.834;9.132;2022-09-12T00:51:10;98317.66;;;13.83;89.40
15694;BME280;7947;48.834;9.132;2022-09-12T00:54:22;98317.38;;;13.84;89.14
15694;BME280;7947;48.834;9.132;2022-09-12T00:57:31;98319.41;;;13.92;89.69
15694;BME280;7947;48.834;9.132;2022-09-12T01:00:38;98313.97;;;13.97;90.30
15694;BME280;7947;48.834;9.132;2022-09-12T01:03:43;98316.56;;;14.02;90.54
15694;BME280;7947;48.834;9.132;2022-09-12T01:06:49;98317.09;;;14.04;90.69
15694;BME280;7947;48.834;9.132;2022-09-12T01:09:56;98309.88;;;14.00;90.51
15694;BME280;7947;48.834;9.132;2022-09-12T01:13:05;98298.34;;;13.94;90.46
15694;BME280;7947;48.834;9.132;2022-09-12T01:16:11;98304.34;;;13.91;90.81
15694;BME280;7947;48.834;9.132;2022-09-12T01:19:31;98294.13;;;13.88;89.94
15694;BME280;7947;48.834;9.132;2022-09-12T01:22:56;98285.31;;;13.83;89.87
15694;BME280;7947;48.834;9.132;2022-09-12T01:26:19;98289.69;;;13.79;89.94
15694;BME280;7947;48.834;9.132;2022-09-12T01:29:44;98284.69;;;13.72;89.51
15694;BME280;7947;48.834;9.132;2022-09-12T01:33:24;98278.59;;;13.62;89.83
15694;BME280;7947;48.834;9.132;2022-09-12T01:36:36;98279.97;;;13.59;89.92
15694;BME280;7947;48.834;9.132;2022-09-12T01:39:50;98281.91;;;13.58;90.16
15694;BME280;7947;48.834;9.132;2022-09-12T01:43:07;98280.78;;;13.59;89.87
15694;BME280;7947;48.834;9.132;2022-09-12T01:46:26;98280.50;;;13.61;89.77
15694;BME280;7947;48.834;9.132;2022-09-12T01:49:40;98276.22;;;13.60;89.50
15694;BME280;7947;48.834;9.132;2022-09-12T01:52:50;98274.97;;;13.52;89.52
15694;BME280;7947;48.834;9.132;2022-09-12T01:56:02;98274.66;;;13.54;89.52
15694;BME280;7947;48.834;9.132;2022-09-12T01:59:14;98267.66;;;13.53;89.50
15694;BME280;7947;48.834;9.132;2022-09-12T02:02:22;98261.78;;;13.51;89.54
15694;BME280;7947;48.834;9.132;2022-09-12T02:05:32;98261.28;;;13.49;89.11
15694;BME280;7947;48.834;9.132;2022-09-12T02:08:41;98262.34;;;13.48;89.56
15694;BME280;7947;48.834;9.132;2022-09-12T02:11:49;98264.03;;;13.44;89.85
15694;BME280;7947;48.834;9.132;2022-09-12T02:14:58;98260.00;;;13.41;89.75
15694;BME280;7947;48.834;9.132;2022-09-12T02:18:05;98254.34;;;13.43;89.47
15694;BME280;7947;48.834;9.132;2022-09-12T02:21:18;98249.81;;;13.38;89.67
15694;BME280;7947;48.834;9.132;2022-09-12T02:24:27;98254.41;;;13.38;89.17
15694;BME280;7947;48.834;9.132;2022-09-12T02:27:37;98254.69;;;13.36;89.13
15694;BME280;7947;48.834;9.132;2022-09-12T02:30:49;98258.75;;;13.34;89.25
15694;BME280;7947;48.834;9.132;2022-09-12T02:34:08;98256.34;;;13.32;88.60
15694;BME280;7947;48.834;9.132;2022-09-12T02:37:19;98251.63;;;13.24;88.48
15694;BME280;7947;48.834;9.132;2022-09-12T02:40:28;98248.69;;;13.21;88.25
15694;BME280;7947;48.834;9.132;2022-09-12T02:43:33;98250.06;;;13.18;89.14
15694;BME280;7947;48.834;9.132;2022-09-12T02:46:43;98240.91;;;13.19;89.05
15694;BME280;7947;48.834;9.132;2022-09-12T02:49:48;98246.09;;;13.16;88.93
15694;BME280;7947;48.834;9.132;2022-09-12T02:52:55;98253.97;;;13.07;88.24
15694;BME280;7947;48.834;9.132;2022-09-12T02:56:09;98246.41;;;13.09;87.93
15694;BME280;7947;48.834;9.132;2022-09-12T02:59:18;98235.19;;;13.02;88.24
15694;BME280;7947;48.834;9.132;2022-09-12T03:02:30;98233.94;;;12.95;87.54
15694;BME280;7947;48.834;9.132;2022-09-12T03:05:41;98236.31;;;12.96;88.48
15694;BME280;7947;48.834;9.132;2022-09-12T03:08:59;98238.22;;;12.96;88.56
15694;BME280;7947;48.834;9.132;2022-09-12T03:12:12;98240.69;;;12.92;87.88
15694;BME280;7947;48.834;9.132;2022-09-12T03:15:30;98252.81;;;12.90;88.01
15694;BME280;7947;48.834;9.132;2022-09-12T03:18:50;98241.53;;;12.88;87.78
15694;BME280;7947;48.834;9.132;2022-09-12T03:22:06;98243.75;;;12.81;88.11
15694;BME280;7947;48.834;9.132;2022-09-12T03:25:18;98253.50;;;12.77;88.26
15694;BME280;7947;48.834;9.132;2022-09-12T03:28:25;98254.81;;;12.79;88.40
15694;BME280;7947;48.834;9.132;2022-09-12T03:31:31;98250.75;;;12.82;88.39
15694;BME280;7947;48.834;9.132;2022-09-12T03:34:36;98245.72;;;12.75;88.05
15694;BME280;7947;48.834;9.132;2022-09-12T03:37:41;98249.25;;;12.70;88.14
15694;BME280;7947;48.834;9.132;2022-09-12T03:40:48;98250.63;;;12.68;87.80
15694;BME280;7947;48.834;9.132;2022-09-12T03:43:56;98262.41;;;12.72;88.35
15694;BME280;7947;48.834;9.132;2022-09-12T03:47:01;98244.72;;;12.66;88.10
15694;BME280;7947;48.834;9.132;2022-09-12T03:50:12;98263.53;;;12.66;87.96
15694;BME280;7947;48.834;9.132;2022-09-12T03:53:16;98250.38;;;12.64;87.90
15694;BME280;7947;48.834;9.132;2022-09-12T03:56:23;98252.25;;;12.64;87.58
15694;BME280;7947;48.834;9.132;2022-09-12T03:59:28;98248.78;;;12.63;88.37
15694;BME280;7947;48.834;9.132;2022-09-12T04:02:33;98253.06;;;12.64;88.46
15694;BME280;7947;48.834;9.132;2022-09-12T04:05:38;98248.78;;;12.63;88.56
15694;BME280;7947;48.834;9.132;2022-09-12T04:08:43;98251.75;;;12.62;87.99
15694;BME280;7947;48.834;9.132;2022-09-12T04:11:50;98255.03;;;12.59;88.49
15694;BME280;7947;48.834;9.132;2022-09-12T04:15:05;98246.44;;;12.57;88.21
15694;BME280;7947;48.834;9.132;2022-09-12T04:18:10;98250.47;;;12.54;88.63
15694;BME280;7947;48.834;9.132;2022-09-12T04:21:17;98248.94;;;12.48;88.55
15694;BME280;7947;48.834;9.132;2022-09-12T04:24:23;98250.53;;;12.49;88.89
15694;BME280;7947;48.834;9.132;2022-09-12T04:27:29;98253.81;;;12.46;88.51
15694;BME280;7947;48.834;9.132;2022-09-12T04:30:36;98247.63;;;12.46;88.34
15694;BME280;7947;48.834;9.132;2022-09-12T04:33:41;98251.38;;;12.45;88.57
15694;BME280;7947;48.834;9.132;2022-09-12T04:36:46;98252.19;;;12.45;87.94
15694;BME280;7947;48.834;9.132;2022-09-12T04:39:51;98252.41;;;12.49;88.32
15694;BME280;7947;48.834;9.132;2022-09-12T04:43:00;98244.63;;;12.47;87.94
15694;BME280;7947;48.834;9.132;2022-09-12T04:46:05;98257.06;;;12.43;87.50
15694;BME280;7947;48.834;9.132;2022-09-12T04:49:11;98248.22;;;12.38;87.97
15694;BME280;7947;48.834;9.132;2022-09-12T04:52:16;98245.59;;;12.33;88.04
15694;BME280;7947;48.834;9.132;2022-09-12T04:55:21;98244.78;;;12.32;87.97
15694;BME280;7947;48.834;9.132;2022-09-12T04:58:29;98246.38;;;12.33;88.32
15694;BME280;7947;48.834;9.132;2022-09-12T05:01:34;98248.53;;;12.36;88.54
15694;BME280;7947;48.834;9.132;2022-09-12T05:04:40;98244.22;;;12.35;88.44
15694;BME280;7947;48.834;9.132;2022-09-12T05:07:44;98243.69;;;12.33;88.09
15694;BME280;7947;48.834;9.132;2022-09-12T05:10:49;98243.16;;;12.31;88.37
15694;BME280;7947;48.834;9.132;2022-09-12T05:13:56;98241.81;;;12.34;88.96
15694;BME280;7947;48.834;9.132;2022-09-12T05:17:01;98248.22;;;12.38;89.02
15694;BME280;7947;48.834;9.132;2022-09-12T05:20:06;98242.34;;;12.36;88.74
15694;BME280;7947;48.834;9.132;2022-09-12T05:23:14;98247.13;;;12.39;88.67
15694;BME280;7947;48.834;9.132;2022-09-12T05:26:19;98240.38;;;12.46;88.92
15694;BME280;7947;48.834;9.132;2022-09-12T05:29:26;98241.88;;;12.52;89.25
15694;BME280;7947;48.834;9.132;2022-09-12T05:32:31;98241.88;;;12.52;89.56
15694;BME280;7947;48.834;9.132;2022-09-12T05:35:36;98245.09;;;12.54;90.03
15694;BME280;7947;48.834;9.132;2022-09-12T05:38:41;98249.41;;;12.55;90.17
15694;BME280;7947;48.834;9.132;2022-09-12T05:41:48;98247.69;;;12.64;89.26
15694;BME280;7947;48.834;9.132;2022-09-12T05:44:54;98250.91;;;12.66;89.67
15694;BME280;7947;48.834;9.132;2022-09-12T05:47:59;98254.34;;;12.72;89.72
15694;BME280;7947;48.834;9.132;2022-09-12T05:51:08;98254.53;;;12.81;89.76
15694;BME280;7947;48.834;9.132;2022-09-12T05:54:16;98256.91;;;12.87;90.34
15694;BME280;7947;48.834;9.132;2022-09-12T05:57:22;98260.19;;;13.03;90.58
15694;BME280;7947;48.834;9.132;2022-09-12T06:00:29;98253.78;;;13.22;91.78
15694;BME280;7947;48.834;9.132;2022-09-12T06:03:38;98251.91;;;13.41;92.30
15694;BME280;7947;48.834;9.132;2022-09-12T06:06:44;98252.16;;;13.64;92.29
15694;BME280;7947;48.834;9.132;2022-09-12T06:09:50;98254.28;;;13.85;91.87
15694;BME280;7947;48.834;9.132;2022-09-12T06:12:56;98246.16;;;14.04;91.15
15694;BME280;7947;48.834;9.132;2022-09-12T06:16:04;98251.03;;;14.20;91.03
15694;BME280;7947;48.834;9.132;2022-09-12T06:19:13;98244.09;;;14.33;89.76
15694;BME280;7947;48.834;9.132;2022-09-12T06:22:18;98239.03;;;14.45;89.74
15694;BME280;7947;48.834;9.132;2022-09-12T06:25:23;98238.38;;;14.67;89.49
15694;BME280;7947;48.834;9.132;2022-09-12T06:28:28;98247.78;;;14.83;89.23
15694;BME280;7947;48.834;9.132;2022-09-12T06:31:36;98244.50;;;14.99;89.65
15694;BME280;7947;48.834;9.132;2022-09-12T06:34:42;98239.91;;;15.13;88.39
15694;BME280;7947;48.834;9.132;2022-09-12T06:37:49;98241.09;;;15.34;87.17
15694;BME280;7947;48.834;9.132;2022-09-12T06:40:54;98240.66;;;15.55;86.72
15694;BME280;7947;48.834;9.132;2022-09-12T06:44:00;98240.53;;;15.73;85.89
15694;BME280;7947;48.834;9.132;2022-09-12T06:47:07;98241.47;;;15.91;85.53
15694;BME280;7947;48.834;9.132;2022-09-12T06:50:12;98247.56;;;16.18;84.41
15694;BME280;7947;48.834;9.132;2022-09-12T06:53:17;98240.81;;;16.52;83.17
15694;BME280;7947;48.834;9.132;2022-09-12T06:56:23;98250.06;;;16.90;81.56
15694;BME280;7947;48.834;9.132;2022-09-12T06:59:29;98244.56;;;17.51;78.83
15694;BME280;7947;48.834;9.132;2022-09-12T07:02:35;98243.63;;;17.81;76.44
15694;BME280;7947;48.834;9.132;2022-09-12T07:05:40;98238.84;;;17.87;73.89
15694;BME280;7947;48.834;9.132;2022-09-12T07:08:47;98235.16;;;18.34;74.33
15694;BME280;7947;48.834;9.132;2022-09-12T07:11:52;98232.75;;;19.34;70.56
15694;BME280;7947;48.834;9.132;2022-09-12T07:14:57;98230.25;;;20.11;66.43
15694;BME280;7947;48.834;9.132;2022-09-12T07:18:04;98231.09;;;20.44;65.63
15694;BME280;7947;48.834;9.132;2022-09-12T07:21:11;98230.63;;;20.42;64.46
15694;BME280;7947;48.834;9.132;2022-09-12T07:24:16;98237.97;;;19.89;66.23
15694;BME280;7947;48.834;9.132;2022-09-12T07:27:21;98236.56;;;19.41;68.46
15694;BME280;7947;48.834;9.132;2022-09-12T07:30:26;98232.72;;;19.05;70.08
15694;BME280;7947;48.834;9.132;2022-09-12T07:33:33;98235.41;;;18.75;71.85
15694;BME280;7947;48.834;9.132;2022-09-12T07:36:39;98240.75;;;18.46;73.12
15694;BME280;7947;48.834;9.132;2022-09-12T07:39:44;98236.09;;;18.30;73.23
15694;BME280;7947;48.834;9.132;2022-09-12T07:42:49;98234.69;;;18.15;74.08
15694;BME280;7947;48.834;9.132;2022-09-12T07:45:55;98235.50;;;17.98;74.49
15694;BME280;7947;48.834;9.132;2022-09-12T07:49:01;98232.16;;;17.93;75.05
15694;BME280;7947;48.834;9.132;2022-09-12T07:52:06;98238.84;;;17.87;75.56
15694;BME280;7947;48.834;9.132;2022-09-12T07:55:12;98229.44;;;17.93;75.68
15694;BME280;7947;48.834;9.132;2022-09-12T07:58:17;98230.56;;;17.92;75.92
15694;BME280;7947;48.834;9.132;2022-09-12T08:01:22;98234.06;;;17.92;73.93
15694;BME280;7947;48.834;9.132;2022-09-12T08:04:29;98230.88;;;17.99;75.49
15694;BME280;7947;48.834;9.132;2022-09-12T08:07:34;98235.47;;;18.16;75.03
15694;BME280;7947;48.834;9.132;2022-09-12T08:10:40;98230.81;;;18.33;73.13
15694;BME280;7947;48.834;9.132;2022-09-12T08:13:45;98225.22;;;18.64;72.66
15694;BME280;7947;48.834;9.132;2022-09-12T08:16:57;98232.09;;;18.99;71.49
15694;BME280;7947;48.834;9.132;2022-09-12T08:20:04;98234.19;;;19.31;69.68
15694;BME280;7947;48.834;9.132;2022-09-12T08:23:09;98222.72;;;19.55;68.06
15694;BME280;7947;48.834;9.132;2022-09-12T08:26:14;98215.16;;;19.81;67.12
15694;BME280;7947;48.834;9.132;2022-09-12T08:29:19;98221.19;;;20.07;66.24
15694;BME280;7947;48.834;9.132;2022-09-12T08:32:24;98221.06;;;20.36;64.63
15694;BME280;7947;48.834;9.132;2022-09-12T08:35:30;98226.06;;;20.67;63.93
15694;BME280;7947;48.834;9.132;2022-09-12T08:38:36;98232.34;;;20.92;61.86
15694;BME280;7947;48.834;9.132;2022-09-12T08:41:43;98230.44;;;21.04;61.24
15694;BME280;7947;48.834;9.132;2022-09-12T08:44:59;98225.44;;;21.30;60.97
15694;BME280;7947;48.834;9.132;2022-09-12T08:48:09;98212.91;;;21.53;59.31
15694;BME280;7947;48.834;9.132;2022-09-12T08:51:18;98208.81;;;21.72;57.61
15694;BME280;7947;48.834;9.132;2022-09-12T08:54:27;98210.38;;;21.85;56.81
15694;BME280;7947;48.834;9.132;2022-09-12T08:57:34;98206.72;;;21.93;58.13
15694;BME280;7947;48.834;9.132;2022-09-12T09:00:45;98206.81;;;21.96;56.93
15694;BME280;7947;48.834;9.132;2022-09-12T09:07:48;98203.03;;;22.28;55.01
15694;BME280;7947;48.834;9.132;2022-09-12T09:11:04;98199.94;;;22.58;56.01
15694;BME280;7947;48.834;9.132;2022-09-12T09:14:34;98203.59;;;22.77;53.69
15694;BME280;7947;48.834;9.132;2022-09-12T09:17:53;98204.09;;;22.98;53.20
15694;BME280;7947;48.834;9.132;2022-09-12T09:21:02;98201.97;;;23.23;53.85
15694;BME280;7947;48.834;9.132;2022-09-12T09:24:14;98203.56;;;23.40;51.30
15694;BME280;7947;48.834;9.132;2022-09-12T09:27:27;98200.91;;;23.43;50.53
15694;BME280;7947;48.834;9.132;2022-09-12T09:30:43;98199.19;;;23.54;51.14
15694;BME280;7947;48.834;9.132;2022-09-12T09:33:50;98187.00;;;23.67;49.82
15694;BME280;7947;48.834;9.132;2022-09-12T09:37:00;98193.41;;;23.75;49.04
15694;BME280;7947;48.834;9.132;2022-09-12T09:40:16;98201.41;;;23.83;49.11
15694;BME280;7947;48.834;9.132;2022-09-12T09:43:25;98203.28;;;23.98;49.51
15694;BME280;7947;48.834;9.132;2022-09-12T09:46:31;98199.34;;;24.15;48.71
15694;BME280;7947;48.834;9.132;2022-09-12T09:49:38;98201.53;;;24.25;47.65
15694;BME280;7947;48.834;9.132;2022-09-12T09:52:43;98196.59;;;24.34;46.32
15694;BME280;7947;48.834;9.132;2022-09-12T09:55:50;98195.44;;;24.35;45.95
15694;BME280;7947;48.834;9.132;2022-09-12T09:59:07;98200.31;;;24.45;45.83
15694;BME280;7947;48.834;9.132;2022-09-12T10:02:20;98196.38;;;24.43;45.33
15694;BME280;7947;48.834;9.132;2022-09-12T10:05:26;98198.06;;;24.51;47.08
15694;BME280;7947;48.834;9.132;2022-09-12T10:08:33;98185.41;;;24.65;45.15
15694;BME280;7947;48.834;9.132;2022-09-12T10:11:40;98187.72;;;24.82;45.57
15694;BME280;7947;48.834;9.132;2022-09-12T10:14:56;98182.75;;;24.91;44.61
15694;BME280;7947;48.834;9.132;2022-09-12T10:18:02;98183.75;;;25.02;44.55
15694;BME280;7947;48.834;9.132;2022-09-12T10:21:31;98185.97;;;25.20;41.79
15694;BME280;7947;48.834;9.132;2022-09-12T10:24:47;98181.28;;;25.20;42.83
15694;BME280;7947;48.834;9.132;2022-09-12T10:27:57;98178.97;;;25.22;42.42
15694;BME280;7947;48.834;9.132;2022-09-12T10:31:05;98178.31;;;25.32;42.11
15694;BME280;7947;48.834;9.132;2022-09-12T10:34:24;98179.72;;;25.23;42.60
15694;BME280;7947;48.834;9.132;2022-09-12T10:37:34;98168.31;;;25.21;43.39
15694;BME280;7947;48.834;9.132;2022-09-12T10:41:04;98165.22;;;25.22;42.47
15694;BME280;7947;48.834;9.132;2022-09-12T10:44:33;98168.78;;;25.26;41.71
15694;BME280;7947;48.834;9.132;2022-09-12T10:47:57;98169.03;;;25.40;40.57
15694;BME280;7947;48.834;9.132;2022-09-12T10:51:27;98164.22;;;25.34;42.06
15694;BME280;7947;48.834;9.132;2022-09-12T10:54:32;98158.41;;;25.39;41.40
15694;BME280;7947;48.834;9.132;2022-09-12T10:57:50;98164.66;;;25.36;40.78
15694;BME280;7947;48.834;9.132;2022-09-12T11:01:05;98153.78;;;25.43;41.26
15694;BME280;7947;48.834;9.132;2022-09-12T11:04:38;98151.88;;;25.47;41.16
15694;BME280;7947;48.834;9.132;2022-09-12T11:07:48;98139.25;;;25.72;40.87
15694;BME280;7947;48.834;9.132;2022-09-12T11:14:42;98125.44;;;25.98;39.47
15694;BME280;7947;48.834;9.132;2022-09-12T11:17:58;98124.38;;;26.06;39.03
15694;BME280;7947;48.834;9.132;2022-09-12T11:21:14;98122.53;;;26.17;39.42
15694;BME280;7947;48.834;9.132;2022-09-12T11:24:36;98110.94;;;26.34;38.30
15694;BME280;7947;48.834;9.132;2022-09-12T11:27:53;98112.03;;;26.26;37.81
15694;BME280;7947;48.834;9.132;2022-09-12T11:31:18;98108.97;;;26.35;37.46
15694;BME280;7947;48.834;9.132;2022-09-12T11:34:32;98104.69;;;26.41;36.57
15694;BME280;7947;48.834;9.132;2022-09-12T11:37:47;98110.63;;;26.46;36.49
15694;BME280;7947;48.834;9.132;2022-09-12T11:41:00;98103.63;;;26.52;36.16
15694;BME280;7947;48.834;9.132;2022-09-12T11:44:12;98096.22;;;26.60;36.74
15694;BME280;7947;48.834;9.132;2022-09-12T11:47:19;98100.47;;;26.50;36.23
15694;BME280;7947;48.834;9.132;2022-09-12T11:50:30;98105.47;;;26.38;37.19
15694;BME280;7947;48.834;9.132;2022-09-12T11:53:40;98095.66;;;26.40;37.88
15694;BME280;7947;48.834;9.132;2022-09-12T11:56:50;98090.97;;;26.44;37.57
15694;BME280;7947;48.834;9.132;2022-09-12T11:59:59;98088.22;;;26.44;36.57
15694;BME280;7947;48.834;9.132;2022-09-12T12:03:08;98086.44;;;26.62;36.67
15694;BME280;7947;48.834;9.132;2022-09-12T12:06:21;98085.78;;;26.76;35.16
15694;BME280;7947;48.834;9.132;2022-09-12T12:09:28;98083.53;;;26.89;35.07
15694;BME280;7947;48.834;9.132;2022-09-12T12:12:34;98081.22;;;26.98;34.64
15694;BME280;7947;48.834;9.132;2022-09-12T12:15:44;98078.59;;;27.19;33.67
15694;BME280;7947;48.834;9.132;2022-09-12T12:18:53;98072.81;;;27.34;34.18
15694;BME280;7947;48.834;9.132;2022-09-12T12:22:07;98073.66;;;27.49;32.95
15694;BME280;7947;48.834;9.132;2022-09-12T12:25:24;98070.97;;;27.63;33.59
15694;BME280;7947;48.834;9.132;2022-09-12T12:28:59;98065.91;;;27.76;32.19
15694;BME280;7947;48.834;9.132;2022-09-12T12:32:22;98058.00;;;27.71;33.09
15694;BME280;7947;48.834;9.132;2022-09-12T12:35:38;98061.16;;;27.73;30.90
15694;BME280;7947;48.834;9.132;2022-09-12T12:38:45;98054.03;;;27.61;32.55
15694;BME280;7947;48.834;9.132;2022-09-12T12:41:50;98050.47;;;27.57;32.09
15694;BME280;7947;48.834;9.132;2022-09-12T12:44:56;98050.84;;;27.52;30.59
15694;BME280;7947;48.834;9.132;2022-09-12T12:48:08;98055.63;;;27.69;32.29
15694;BME280;7947;48.834;9.132;2022-09-12T12:51:53;98045.03;;;27.82;31.60
15694;BME280;7947;48.834;9.132;2022-09-12T12:55:02;98045.81;;;27.79;31.53
15694;BME280;7947;48.834;9.132;2022-09-12T12:58:22;98034.03;;;27.85;30.43
15694;BME280;7947;48.834;9.132;2022-09-12T13:01:31;98027.38;;;27.93;32.40
15694;BME280;7947;48.834;9.132;2022-09-12T13:04:44;98025.84;;;28.06;31.69
15694;BME280;7947;48.834;9.132;2022-09-12T13:07:54;98031.75;;;28.08;31.59
15694;BME280;7947;48.834;9.132;2022-09-12T13:11:07;98023.03;;;27.99;30.47
15694;BME280;7947;48.834;9.132;2022-09-12T13:14:34;98025.44;;;28.04;32.22
15694;BME280;7947;48.834;9.132;2022-09-12T13:17:40;98021.81;;;27.86;31.27
15694;BME280;7947;48.834;9.132;2022-09-12T13:20:50;98019.47;;;27.78;32.05
15694;BME280;7947;48.834;9.132;2022-09-12T13:24:03;98017.47;;;27.78;32.55
15694;BME280;7947;48.834;9.132;2022-09-12T13:27:17;98019.41;;;27.71;33.01
15694;BME280;7947;48.834;9.132;2022-09-12T13:30:23;98022.97;;;27.71;33.45
15694;BME280;7947;48.834;9.132;2022-09-12T13:33:34;98006.44;;;27.71;32.66
15694;BME280;7947;48.834;9.132;2022-09-12T13:36:56;97996.97;;;27.65;32.01
15694;BME280;7947;48.834;9.132;2022-09-12T13:40:21;97995.00;;;27.62;31.69
15694;BME280;7947;48.834;9.132;2022-09-12T13:43:38;97985.53;;;27.52;32.35
15694;BME280;7947;48.834;9.132;2022-09-12T13:46:44;97981.97;;;27.52;32.73
15694;BME280;7947;48.834;9.132;2022-09-12T13:49:51;97988.66;;;27.51;33.17
15694;BME280;7947;48.834;9.132;2022-09-12T13:52:59;97974.13;;;27.57;31.47
15694;BME280;7947;48.834;9.132;2022-09-12T13:56:05;97976.47;;;27.59;32.25
15694;BME280;7947;48.834;9.132;2022-09-12T13:59:11;97977.28;;;27.63;31.54
15694;BME280;7947;48.834;9.132;2022-09-12T14:02:18;97972.16;;;27.65;30.74
15694;BME280;7947;48.834;9.132;2022-09-12T14:05:25;97971.41;;;27.79;32.93
15694;BME280;7947;48.834;9.132;2022-09-12T14:08:30;97974.97;;;27.93;31.03
15694;BME280;7947;48.834;9.132;2022-09-12T14:11:37;97967.13;;;28.48;30.71
15694;BME280;7947;48.834;9.132;2022-09-12T14:14:47;97952.28;;;29.39;28.80
15694;BME280;7947;48.834;9.132;2022-09-12T14:17:54;97955.06;;;30.04;27.25
15694;BME280;7947;48.834;9.132;2022-09-12T14:21:08;97953.31;;;30.69;26.55
15694;BME280;7947;48.834;9.132;2022-09-12T14:24:14;97945.22;;;31.22;26.51
15694;BME280;7947;48.834;9.132;2022-09-12T14:27:24;97945.75;;;31.44;26.37
15694;BME280;7947;48.834;9.132;2022-09-12T14:30:33;97952.75;;;30.88;25.09
15694;BME280;7947;48.834;9.132;2022-09-12T14:33:46;97946.44;;;30.84;25.94
15694;BME280;7947;48.834;9.132;2022-09-12T14:36:52;97934.50;;;30.53;25.22
15694;BME280;7947;48.834;9.132;2022-09-12T14:39:59;97934.41;;;30.16;25.38
15694;BME280;7947;48.834;9.132;2022-09-12T14:43:04;97935.88;;;29.80;26.61
15694;BME280;7947;48.834;9.132;2022-09-12T14:46:17;97927.75;;;29.52;28.16
15694;BME280;7947;48.834;9.132;2022-09-12T14:49:27;97936.13;;;29.34;27.69
15694;BME280;7947;48.834;9.132;2022-09-12T14:52:34;97931.47;;;29.10;28.09
15694;BME280;7947;48.834;9.132;2022-09-12T14:55:44;97926.78;;;29.00;29.58
15694;BME280;7947;48.834;9.132;2022-09-12T14:58:49;97925.63;;;28.90;28.48
15694;BME280;7947;48.834;9.132;2022-09-12T15:02:19;97920.59;;;28.68;29.27
15694;BME280;7947;48.834;9.132;2022-09-12T15:05:25;97921.00;;;28.56;29.14
15694;BME280;7947;48.834;9.132;2022-09-12T15:08:31;97929.66;;;28.50;30.32
15694;BME280;7947;48.834;9.132;2022-09-12T15:11:35;97915.50;;;28.45;30.19
15694;BME280;7947;48.834;9.132;2022-09-12T15:14:40;97918.66;;;28.33;30.32
15694;BME280;7947;48.834;9.132;2022-09-12T15:17:46;97918.66;;;28.15;30.38
15694;BME280;7947;48.834;9.132;2022-09-12T15:20:53;97917.09;;;28.00;30.61
15694;BME280;7947;48.834;9.132;2022-09-12T15:23:59;97904.47;;;27.85;31.24
15694;BME280;7947;48.834;9.132;2022-09-12T15:27:08;97910.34;;;27.62;31.44
15694;BME280;7947;48.834;9.132;2022-09-12T15:30:13;97915.44;;;27.46;31.32
15694;BME280;7947;48.834;9.132;2022-09-12T15:33:21;97915.75;;;27.24;32.04
15694;BME280;7947;48.834;9.132;2022-09-12T15:36:26;97900.72;;;27.00;31.70
15694;BME280;7947;48.834;9.132;2022-09-12T15:39:32;97897.91;;;26.86;33.33
15694;BME280;7947;48.834;9.132;2022-09-12T15:42:37;97897.03;;;26.71;33.80
15694;BME280;7947;48.834;9.132;2022-09-12T15:45:42;97901.25;;;26.51;33.66
15694;BME280;7947;48.834;9.132;2022-09-12T15:48:49;97894.53;;;26.42;32.95
15694;BME280;7947;48.834;9.132;2022-09-12T15:51:54;97887.81;;;26.39;33.65
15694;BME280;7947;48.834;9.132;2022-09-12T15:55:01;97888.97;;;26.35;35.18
15694;BME280;7947;48.834;9.132;2022-09-12T15:58:06;97881.00;;;26.19;33.16
15694;BME280;7947;48.834;9.132;2022-09-12T16:01:13;97886.06;;;26.10;34.37
15694;BME280;7947;48.834;9.132;2022-09-12T16:04:21;97887.19;;;26.06;34.49
15694;BME280;7947;48.834;9.132;2022-09-12T16:07:26;97885.56;;;26.01;34.31
15694;BME280;7947;48.834;9.132;2022-09-12T16:10:32;97875.31;;;25.98;34.67
15694;BME280;7947;48.834;9.132;2022-09-12T16:13:37;97874.50;;;25.94;35.55
15694;BME280;7947;48.834;9.132;2022-09-12T16:16:43;97873.63;;;25.83;34.55
15694;BME280;7947;48.834;9.132;2022-09-12T16:19:49;97866.91;;;25.77;34.16
15694;BME280;7947;48.834;9.132;2022-09-12T16:22:55;97867.25;;;25.68;34.97
15694;BME280;7947;48.834;9.132;2022-09-12T16:26:01;97865.16;;;25.55;36.48
15694;BME280;7947;48.834;9.132;2022-09-12T16:29:06;97868.56;;;25.41;37.11
15694;BME280;7947;48.834;9.132;2022-09-12T16:32:11;97861.72;;;25.28;37.57
15694;BME280;7947;48.834;9.132;2022-09-12T16:35:17;97853.72;;;25.13;37.21
15694;BME280;7947;48.834;9.132;2022-09-12T16:38:22;97866.84;;;24.93;38.12
15694;BME280;7947;48.834;9.132;2022-09-12T16:41:27;97861.22;;;24.82;38.81
15694;BME280;7947;48.834;9.132;2022-09-12T16:44:33;97860.59;;;24.66;38.87
15694;BME280;7947;48.834;9.132;2022-09-12T16:47:39;97863.59;;;24.54;40.25
15694;BME280;7947;48.834;9.132;2022-09-12T16:50:55;97857.09;;;24.36;40.17
15694;BME280;7947;48.834;9.132;2022-09-12T16:54:00;97852.66;;;24.28;40.32
15694;BME280;7947;48.834;9.132;2022-09-12T16:57:06;97860.34;;;24.15;40.58
15694;BME280;7947;48.834;9.132;2022-09-12T17:00:11;97850.28;;;24.00;40.68
15694;BME280;7947;48.834;9.132;2022-09-12T17:03:16;97849.75;;;23.91;41.54